createdAt,value
2023-03-10T00:00:15.548Z,99.90
2023-03-10T00:02:49.749Z,99.90
2023-03-10T00:05:20.065Z,99.90
2023-03-10T00:07:51.427Z,99.90
2023-03-10T00:10:21.352Z,1.00
2023-03-10T00:12:50.634Z,1.00
2023-03-10T00:15:20.071Z,1.00
2023-03-10T00:17:50.409Z,1.00
2023-03-10T00:20:19.780Z,1.00
2023-03-10T00:22:50.548Z,1.00
2023-03-10T00:25:20.052Z,1.00
2023-03-10T00:27:52.774Z,1.00
2023-03-10T00:30:22.150Z,99.90
2023-03-10T00:32:51.717Z,1.00
2023-03-10T00:35:21.001Z,1.00
2023-03-10T00:37:51.636Z,1.00
2023-03-10T00:40:21.267Z,1.00
2023-03-10T00:42:50.450Z,1.00
2023-03-10T00:45:19.776Z,1.00
2023-03-10T00:47:50.646Z,1.00
2023-03-10T00:50:20.622Z,1.00
2023-03-10T00:52:51.512Z,1.00
2023-03-10T00:55:20.801Z,1.00
2023-03-10T00:57:50.074Z,1.00
2023-03-10T01:00:20.274Z,1.00
2023-03-10T01:02:51.795Z,1.00
2023-03-10T01:05:21.263Z,1.00
2023-03-10T01:07:52.319Z,1.00
2023-03-10T01:10:21.686Z,1.00
2023-03-10T01:12:50.923Z,1.00
2023-03-10T01:15:20.467Z,1.00
2023-03-10T01:17:49.825Z,1.00
2023-03-10T01:20:19.594Z,1.00
2023-03-10T01:22:48.898Z,1.00
2023-03-10T01:25:19.747Z,1.00
2023-03-10T01:27:49.557Z,1.00
2023-03-10T01:30:19.056Z,1.00
2023-03-10T01:32:48.593Z,1.00
2023-03-10T01:35:17.913Z,1.00
2023-03-10T01:37:47.150Z,49.00
2023-03-10T01:40:18.958Z,56.40
2023-03-10T01:42:48.168Z,40.00
2023-03-10T01:45:57.026Z,31.70
2023-03-10T01:48:26.704Z,99.90
2023-03-10T01:50:58.710Z,93.50
2023-03-10T01:53:30.104Z,81.40
2023-03-10T01:56:04.525Z,94.60
2023-03-10T01:58:41.973Z,99.90
2023-03-10T02:01:13.400Z,99.90
2023-03-10T02:03:49.947Z,99.90
2023-03-10T02:06:22.517Z,99.90
2023-03-10T02:08:58.123Z,99.90
2023-03-10T02:11:29.091Z,99.90
2023-03-10T02:13:58.710Z,99.90
2023-03-10T02:16:28.105Z,99.90
2023-03-10T02:18:57.469Z,99.90
2023-03-10T02:21:37.575Z,99.90
2023-03-10T02:24:12.159Z,99.90
2023-03-10T02:26:51.660Z,99.90
2023-03-10T02:29:28.207Z,99.90
2023-03-10T02:31:58.656Z,99.90
2023-03-10T02:34:29.533Z,99.90
2023-03-10T02:36:59.222Z,99.90
2023-03-10T02:39:28.563Z,99.90
2023-03-10T02:41:58.143Z,99.90
2023-03-10T02:44:29.543Z,99.90
2023-03-10T02:46:58.781Z,99.90
2023-03-10T02:49:29.341Z,99.90
2023-03-10T02:52:00.913Z,99.90
2023-03-10T02:54:30.306Z,99.90
2023-03-10T02:56:59.664Z,99.90
2023-03-10T02:59:30.344Z,99.90
2023-03-10T03:01:59.588Z,99.90
2023-03-10T03:04:29.192Z,99.90
2023-03-10T03:06:58.438Z,99.90
2023-03-10T03:09:28.873Z,99.90
2023-03-10T03:12:00.235Z,99.90
2023-03-10T03:14:31.788Z,99.90
2023-03-10T03:17:01.184Z,99.90
2023-03-10T03:19:30.928Z,99.90
2023-03-10T03:22:00.726Z,99.90
2023-03-10T03:24:32.831Z,99.90
2023-03-10T03:27:02.274Z,99.90
2023-03-10T03:29:33.346Z,99.90
2023-03-10T03:32:02.738Z,99.90
2023-03-10T03:34:35.622Z,99.90
2023-03-10T03:37:07.641Z,99.90
2023-03-10T03:39:40.603Z,99.90
2023-03-10T03:42:11.318Z,99.90
2023-03-10T03:44:49.001Z,99.90
2023-03-10T03:47:18.248Z,99.90
2023-03-10T03:49:47.690Z,99.90
2023-03-10T03:52:17.076Z,99.90
2023-03-10T03:54:46.470Z,99.90
2023-03-10T03:57:16.017Z,99.90
2023-03-10T03:59:45.772Z,99.90
2023-03-10T04:02:16.580Z,99.90
2023-03-10T04:04:46.301Z,99.90
2023-03-10T04:07:18.145Z,99.90
2023-03-10T04:09:48.134Z,99.90
2023-03-10T04:12:17.418Z,99.90
2023-03-10T04:14:49.548Z,99.90
2023-03-10T04:17:20.311Z,99.90
2023-03-10T04:20:04.577Z,99.90
2023-03-10T04:22:36.662Z,99.90
2023-03-10T04:25:07.375Z,99.90
2023-03-10T04:27:37.635Z,99.90
2023-03-10T04:30:09.392Z,99.90
2023-03-10T04:32:42.428Z,99.90
2023-03-10T04:35:14.285Z,99.90
2023-03-10T04:37:45.097Z,99.90
2023-03-10T04:40:16.457Z,99.90
2023-03-10T04:42:46.476Z,99.90
2023-03-10T04:45:16.358Z,99.90
2023-03-10T04:47:47.907Z,99.90
2023-03-10T04:50:20.232Z,99.90
2023-03-10T04:52:51.440Z,99.90
2023-03-10T04:55:25.154Z,99.90
2023-03-10T04:57:54.778Z,99.90
2023-03-10T05:00:24.686Z,99.90
2023-03-10T05:02:57.114Z,99.90
2023-03-10T05:05:26.965Z,99.90
2023-03-10T05:07:56.228Z,99.90
2023-03-10T05:10:25.529Z,99.90
2023-03-10T05:12:56.899Z,99.90
2023-03-10T05:15:26.302Z,99.90
2023-03-10T05:17:56.997Z,99.90
2023-03-10T05:20:26.539Z,99.90
2023-03-10T05:22:56.015Z,99.90
2023-03-10T05:25:25.432Z,99.90
2023-03-10T05:27:54.633Z,99.90
2023-03-10T05:30:24.233Z,99.90
2023-03-10T05:32:58.203Z,99.90
2023-03-10T05:35:27.680Z,99.90
2023-03-10T05:37:56.978Z,99.90
2023-03-10T05:40:26.685Z,99.90
2023-03-10T05:42:55.998Z,99.90
2023-03-10T05:45:26.162Z,99.90
2023-03-10T05:47:55.423Z,99.90
2023-03-10T05:50:26.262Z,99.90
2023-03-10T05:52:55.820Z,99.90
2023-03-10T05:55:28.866Z,99.90
2023-03-10T05:57:58.401Z,99.90
2023-03-10T06:00:28.159Z,99.90
2023-03-10T06:03:03.289Z,99.90
2023-03-10T06:05:34.086Z,99.90
2023-03-10T06:08:03.282Z,99.90
2023-03-10T06:10:32.633Z,99.90
2023-03-10T06:13:01.993Z,99.90
2023-03-10T06:15:32.224Z,99.90
2023-03-10T06:18:01.781Z,99.90
2023-03-10T06:20:32.465Z,99.90
2023-03-10T06:23:01.750Z,99.90
2023-03-10T06:25:31.032Z,99.90
2023-03-10T06:28:00.323Z,99.90
2023-03-10T06:30:29.703Z,99.90
2023-03-10T06:33:00.026Z,99.90
2023-03-10T06:35:29.555Z,99.90
2023-03-10T06:38:00.501Z,99.90
2023-03-10T06:40:29.748Z,99.90
2023-03-10T06:42:58.962Z,99.90
2023-03-10T06:45:28.285Z,99.90
2023-03-10T06:47:57.693Z,99.90
2023-03-10T06:50:32.129Z,99.90
2023-03-10T06:53:02.760Z,99.90
2023-03-10T06:55:32.145Z,99.90
2023-03-10T06:58:01.530Z,99.90
2023-03-10T07:00:30.881Z,99.90
2023-03-10T07:03:00.544Z,99.90
2023-03-10T07:05:30.140Z,99.90
2023-03-10T07:07:59.465Z,99.90
2023-03-10T07:10:30.304Z,99.90
2023-03-10T07:12:59.718Z,99.90
2023-03-10T07:15:29.203Z,99.90
2023-03-10T07:17:59.046Z,99.90
2023-03-10T07:20:28.439Z,99.90
2023-03-10T07:22:57.873Z,99.90
2023-03-10T07:25:27.881Z,99.90
2023-03-10T07:27:58.758Z,99.90
2023-03-10T07:30:28.117Z,99.90
2023-03-10T07:32:57.385Z,99.90
2023-03-10T07:35:26.976Z,99.90
2023-03-10T07:37:56.304Z,99.90
2023-03-10T07:40:25.705Z,99.90
2023-03-10T07:42:55.849Z,99.90
2023-03-10T07:45:27.862Z,99.90
2023-03-10T07:47:57.252Z,99.90
2023-03-10T07:50:27.121Z,99.90
2023-03-10T07:52:56.500Z,99.90
2023-03-10T07:55:26.040Z,99.90
2023-03-10T07:57:57.037Z,99.90
2023-03-10T08:00:28.085Z,99.90
2023-03-10T08:02:57.490Z,99.90
2023-03-10T08:05:27.596Z,99.90
2023-03-10T08:07:57.513Z,99.90
2023-03-10T08:10:26.875Z,99.90
2023-03-10T08:12:56.203Z,99.90
2023-03-10T08:15:27.451Z,99.90
2023-03-10T08:17:56.927Z,99.90
2023-03-10T08:20:26.292Z,99.90
2023-03-10T08:22:56.006Z,99.90
2023-03-10T08:25:25.404Z,99.90
2023-03-10T08:27:54.626Z,99.90
2023-03-10T08:30:24.461Z,99.90
2023-03-10T08:32:55.267Z,99.90
2023-03-10T08:35:24.616Z,99.90
2023-03-10T08:37:55.354Z,99.90
2023-03-10T08:40:25.131Z,99.90
2023-03-10T08:42:54.746Z,99.90
2023-03-10T08:45:24.447Z,99.90
2023-03-10T08:47:55.333Z,99.90
2023-03-10T08:50:24.867Z,99.90
2023-03-10T08:52:54.198Z,99.90
2023-03-10T08:55:25.077Z,99.90
2023-03-10T08:57:54.428Z,99.90
2023-03-10T09:00:25.004Z,99.90
2023-03-10T09:02:55.769Z,99.90
2023-03-10T09:05:25.275Z,99.90
2023-03-10T09:07:54.639Z,99.90
2023-03-10T09:10:24.305Z,99.90
2023-03-10T09:13:07.245Z,99.90
2023-03-10T09:15:42.790Z,99.90
2023-03-10T09:18:15.538Z,99.90
2023-03-10T09:20:45.871Z,94.80
2023-03-10T09:23:16.789Z,99.90
2023-03-10T09:25:46.638Z,99.90
2023-03-10T09:28:18.574Z,98.40
2023-03-10T09:30:48.484Z,99.90
2023-03-10T09:33:21.180Z,17.40
2023-03-10T09:36:05.974Z,99.90
2023-03-10T09:38:35.783Z,99.90
2023-03-10T09:41:19.148Z,92.70
2023-03-10T09:43:57.058Z,65.90
2023-03-10T09:46:33.629Z,99.90
2023-03-10T09:49:11.547Z,52.10
2023-03-10T09:51:47.635Z,99.90
2023-03-10T09:54:42.254Z,99.90
2023-03-10T09:57:19.147Z,99.90
2023-03-10T09:59:50.366Z,99.90
2023-03-10T10:02:24.853Z,99.90
2023-03-10T10:05:02.012Z,99.90
2023-03-10T10:07:43.532Z,99.90
2023-03-10T10:10:19.961Z,99.90
2023-03-10T10:12:52.659Z,99.90
2023-03-10T10:15:24.743Z,99.90
2023-03-10T10:18:18.422Z,99.90
2023-03-10T10:20:59.268Z,99.90
2023-03-10T10:23:38.396Z,99.90
2023-03-10T10:26:13.871Z,99.90
2023-03-10T10:28:48.223Z,99.90
2023-03-10T10:31:20.765Z,99.90
2023-03-10T10:33:56.113Z,99.90
2023-03-10T10:36:28.954Z,99.90
2023-03-10T10:38:59.402Z,99.90
2023-03-10T10:41:31.078Z,93.10
2023-03-10T10:44:08.185Z,99.90
2023-03-10T10:46:37.776Z,99.90
2023-03-10T10:49:09.489Z,99.90
2023-03-10T10:51:40.994Z,94.10
2023-03-10T10:54:28.525Z,99.90
2023-03-10T10:56:59.636Z,99.90
2023-03-10T10:59:31.766Z,99.90
2023-03-10T11:02:02.816Z,99.90
2023-03-10T11:04:44.963Z,99.90
2023-03-10T11:07:20.127Z,92.90
2023-03-10T11:09:49.563Z,31.90
2023-03-10T11:12:26.311Z,57.90
2023-03-10T11:17:44.558Z,1.00
2023-03-10T11:20:26.726Z,1.00
2023-03-10T11:23:09.948Z,1.00
2023-03-10T11:25:44.162Z,1.00
2023-03-10T11:28:30.309Z,1.00
2023-03-10T11:31:11.630Z,1.00
2023-03-10T11:33:48.682Z,1.00
2023-03-10T11:36:49.567Z,1.00
2023-03-10T11:39:34.292Z,1.00
2023-03-10T11:42:11.128Z,1.00
2023-03-10T11:44:44.448Z,1.00
2023-03-10T11:47:21.362Z,1.00
2023-03-10T11:49:56.603Z,1.00
2023-03-10T11:52:27.936Z,1.00
2023-03-10T11:55:05.965Z,99.90
2023-03-10T11:57:41.541Z,99.90
2023-03-10T12:00:21.502Z,99.90
2023-03-10T12:03:05.869Z,99.90
2023-03-10T12:05:44.262Z,94.00
2023-03-10T12:08:16.757Z,99.90
2023-03-10T12:10:49.490Z,99.90
2023-03-10T12:13:25.508Z,1.00
2023-03-10T12:16:00.227Z,99.90
2023-03-10T12:18:30.194Z,1.00
2023-03-10T12:21:19.310Z,99.90
2023-03-10T12:23:49.730Z,99.90
2023-03-10T12:27:00.012Z,99.90
2023-03-10T12:29:41.117Z,1.00
2023-03-10T12:32:43.219Z,1.00
2023-03-10T12:35:48.014Z,1.00
2023-03-10T12:38:45.821Z,1.00
2023-03-10T12:41:16.537Z,99.90
2023-03-10T12:43:55.868Z,1.00
2023-03-10T12:46:30.964Z,1.00
2023-03-10T12:49:16.005Z,99.90
2023-03-10T12:51:49.798Z,81.20
2023-03-10T12:54:49.661Z,1.00
2023-03-10T12:57:23.836Z,99.90
2023-03-10T13:00:01.549Z,1.00
2023-03-10T13:02:37.731Z,99.90
2023-03-10T13:05:18.690Z,99.90
2023-03-10T13:07:51.065Z,99.90
2023-03-10T13:10:22.941Z,1.00
2023-03-10T13:12:56.092Z,1.00
2023-03-10T13:15:28.995Z,99.90
2023-03-10T13:18:12.018Z,91.10
2023-03-10T13:20:41.524Z,1.00
2023-03-10T13:23:23.137Z,1.00
2023-03-10T13:25:56.458Z,1.00
2023-03-10T13:28:26.753Z,1.00
2023-03-10T13:31:11.822Z,1.00
2023-03-10T13:33:52.264Z,1.00
2023-03-10T13:36:24.404Z,1.00
2023-03-10T13:38:53.656Z,1.00
2023-03-10T13:41:23.003Z,1.00
2023-03-10T13:43:54.262Z,1.00
2023-03-10T13:46:28.341Z,1.00
2023-03-10T13:49:03.942Z,1.00
2023-03-10T13:51:35.335Z,1.00
2023-03-10T13:54:21.435Z,99.90
2023-03-10T13:56:53.363Z,99.90
2023-03-10T13:59:25.278Z,7.70
2023-03-10T14:01:59.398Z,1.00
2023-03-10T14:04:44.001Z,1.00
2023-03-10T14:07:17.311Z,1.00
2023-03-10T14:09:48.157Z,1.00
2023-03-10T14:12:37.315Z,1.00
2023-03-10T14:15:22.147Z,1.00
2023-03-10T14:18:14.010Z,1.00
2023-03-10T14:20:44.522Z,1.00
2023-03-10T14:23:37.173Z,99.90
2023-03-10T14:26:15.131Z,99.90
2023-03-10T14:28:44.370Z,99.90
2023-03-10T14:31:24.295Z,99.90
2023-03-10T14:33:56.010Z,99.90
2023-03-10T14:36:26.266Z,99.90
2023-03-10T14:38:55.564Z,99.90
2023-03-10T14:41:26.888Z,99.90
2023-03-10T14:43:56.408Z,99.90
2023-03-10T14:46:26.008Z,99.90
2023-03-10T14:48:57.309Z,99.90
2023-03-10T14:51:35.421Z,99.90
2023-03-10T14:54:06.106Z,99.90
2023-03-10T14:56:35.696Z,99.90
2023-03-10T14:59:06.952Z,99.90
2023-03-10T15:01:38.890Z,99.90
2023-03-10T15:04:16.232Z,99.90
2023-03-10T15:06:46.168Z,99.90
2023-03-10T15:09:15.986Z,99.90
2023-03-10T15:11:45.753Z,99.90
2023-03-10T15:14:19.156Z,99.90
2023-03-10T15:16:48.688Z,99.90
2023-03-10T15:19:24.485Z,99.90
2023-03-10T15:21:54.379Z,99.90
2023-03-10T15:24:23.682Z,99.90
2023-03-10T15:26:53.250Z,99.90
2023-03-10T15:29:23.808Z,99.90
2023-03-10T15:31:53.249Z,99.90
2023-03-10T15:34:24.843Z,99.90
2023-03-10T15:36:56.666Z,99.90
2023-03-10T15:39:32.077Z,99.90
2023-03-10T15:42:02.710Z,99.90
2023-03-10T15:44:32.795Z,99.90
2023-03-10T15:47:02.533Z,99.90
2023-03-10T15:49:33.653Z,99.90
2023-03-10T15:52:04.590Z,99.90
2023-03-10T15:54:35.291Z,99.90
2023-03-10T15:57:33.365Z,99.90
2023-03-10T16:00:45.034Z,99.90
2023-03-10T16:03:28.000Z,99.90
2023-03-10T16:05:58.732Z,99.90
2023-03-10T16:08:29.288Z,99.90
2023-03-10T16:10:58.586Z,99.90
2023-03-10T16:13:28.549Z,99.90
2023-03-10T16:15:58.282Z,99.90
2023-03-10T16:18:27.667Z,99.90
2023-03-10T16:20:59.421Z,99.90
2023-03-10T16:23:29.155Z,99.90
2023-03-10T16:26:09.612Z,99.90
2023-03-10T16:28:41.096Z,99.90
2023-03-10T16:31:12.336Z,99.90
2023-03-10T16:33:42.396Z,99.90
2023-03-10T16:36:16.409Z,99.90
2023-03-10T16:38:50.260Z,99.90
2023-03-10T16:41:20.574Z,99.90
2023-03-10T16:43:50.548Z,1.00
2023-03-10T16:46:25.670Z,1.00
2023-03-10T16:48:56.380Z,1.00
2023-03-10T16:51:30.070Z,1.00
2023-03-10T16:54:03.806Z,1.00
2023-03-10T16:56:38.078Z,1.00
2023-03-10T16:59:07.888Z,1.00
2023-03-10T17:01:38.140Z,1.00
2023-03-10T17:05:31.637Z,1.00
2023-03-10T17:08:06.249Z,1.00
2023-03-10T17:10:37.287Z,1.00
2023-03-10T17:13:06.732Z,1.00
2023-03-10T17:15:57.441Z,99.90
2023-03-10T17:18:40.895Z,99.90
2023-03-10T17:21:16.357Z,99.90
2023-03-10T17:23:48.721Z,1.00
2023-03-10T17:26:19.584Z,1.00
2023-03-10T17:28:51.587Z,1.00
2023-03-10T17:31:23.882Z,99.90
2023-03-10T17:33:54.493Z,99.90
2023-03-10T17:36:24.363Z,1.00
2023-03-10T17:38:56.948Z,1.00
2023-03-10T17:41:28.589Z,1.00
2023-03-10T17:44:02.421Z,1.00
2023-03-10T17:46:33.768Z,1.00
2023-03-10T17:49:04.512Z,1.00
2023-03-10T17:51:35.030Z,99.90
2023-03-10T17:54:06.606Z,99.90
2023-03-10T17:56:37.819Z,1.00
2023-03-10T17:59:08.912Z,1.00
2023-03-10T18:01:42.819Z,1.00
2023-03-10T18:04:13.693Z,1.00
2023-03-10T18:06:44.379Z,99.90
2023-03-10T18:09:19.923Z,99.90
2023-03-10T18:11:50.207Z,1.00
2023-03-10T18:14:20.552Z,1.00
2023-03-10T18:16:50.682Z,99.90
2023-03-10T18:19:21.625Z,99.90
2023-03-10T18:21:53.645Z,99.90
2023-03-10T18:24:24.906Z,99.90
2023-03-10T18:26:56.574Z,1.00
2023-03-10T18:29:27.533Z,99.90
2023-03-10T18:31:58.023Z,1.00
2023-03-10T18:34:28.636Z,1.00
2023-03-10T18:36:59.739Z,1.00
2023-03-10T18:39:32.939Z,1.00
2023-03-10T18:42:04.004Z,99.90
2023-03-10T18:44:35.074Z,99.90
2023-03-10T18:47:06.212Z,1.00
2023-03-10T18:49:36.835Z,1.00
2023-03-10T18:52:08.221Z,99.90
2023-03-10T18:54:40.345Z,1.00
2023-03-10T18:57:11.645Z,99.90
2023-03-10T18:59:42.679Z,99.90
2023-03-10T19:02:16.200Z,1.00
2023-03-10T19:04:48.274Z,1.00
2023-03-10T19:07:21.191Z,1.00
2023-03-10T19:09:57.485Z,1.00
2023-03-10T19:12:30.948Z,1.00
2023-03-10T19:15:06.024Z,1.00
2023-03-10T19:17:36.844Z,99.90
2023-03-10T19:20:09.935Z,99.90
2023-03-10T19:22:41.398Z,99.90
2023-03-10T19:25:16.160Z,99.90
2023-03-10T19:27:47.329Z,1.00
2023-03-10T19:30:20.644Z,1.00
2023-03-10T19:32:51.574Z,1.00
2023-03-10T19:35:22.992Z,1.00
2023-03-10T19:37:55.030Z,1.00
2023-03-10T19:40:29.166Z,1.00
2023-03-10T19:43:02.441Z,1.00
2023-03-10T19:45:34.793Z,99.90
2023-03-10T19:48:06.499Z,1.00
2023-03-10T19:50:37.786Z,30.90
2023-03-10T19:53:10.260Z,99.90
2023-03-10T19:55:44.338Z,99.90
2023-03-10T19:58:16.066Z,1.00
2023-03-10T20:00:47.187Z,99.90
2023-03-10T20:03:21.561Z,99.90
2023-03-10T20:05:52.861Z,1.00
2023-03-10T20:08:25.964Z,99.90
2023-03-10T20:11:02.855Z,99.90
2023-03-10T20:13:40.790Z,49.90
2023-03-10T20:16:12.504Z,51.00
2023-03-10T20:18:43.480Z,99.90
2023-03-10T20:21:14.672Z,1.00
2023-03-10T20:23:50.796Z,1.00
2023-03-10T20:26:23.586Z,1.00
2023-03-10T20:28:54.821Z,99.90
2023-03-10T20:31:27.008Z,1.00
2023-03-10T20:33:58.839Z,1.00
2023-03-10T20:36:36.152Z,1.00
2023-03-10T20:39:07.461Z,99.90
2023-03-10T20:41:39.629Z,98.10
2023-03-10T20:44:15.107Z,27.70
2023-03-10T20:46:46.154Z,45.90
2023-03-10T20:49:17.694Z,99.90
2023-03-10T20:51:48.757Z,99.90
2023-03-10T20:54:20.042Z,1.00
2023-03-10T20:56:53.505Z,1.00
2023-03-10T20:59:24.679Z,1.00
2023-03-10T21:01:55.520Z,99.90
2023-03-10T21:04:28.120Z,99.90
2023-03-10T21:06:58.752Z,99.90
2023-03-10T21:09:29.547Z,99.90
2023-03-10T21:12:03.154Z,31.00
2023-03-10T21:14:35.145Z,99.90
2023-03-10T21:17:06.910Z,1.00
2023-03-10T21:19:37.900Z,78.10
2023-03-10T21:22:08.493Z,53.70
2023-03-10T21:24:38.706Z,1.00
2023-03-10T21:27:10.854Z,99.90
2023-03-10T21:29:42.633Z,99.90
2023-03-10T21:32:12.435Z,99.90
2023-03-10T21:34:43.407Z,99.90
2023-03-10T21:37:14.057Z,99.90
2023-03-10T21:39:44.409Z,99.90
2023-03-10T21:42:16.948Z,99.90
2023-03-10T21:44:48.228Z,99.90
2023-03-10T21:47:18.432Z,99.90
2023-03-10T21:49:48.122Z,99.90
2023-03-10T21:52:17.656Z,99.90
2023-03-10T21:54:47.242Z,99.90
2023-03-10T21:57:18.250Z,1.00
2023-03-10T21:59:47.562Z,99.90
2023-03-10T22:02:25.180Z,99.90
2023-03-10T22:04:54.690Z,99.90
2023-03-10T22:07:24.324Z,99.90
2023-03-10T22:09:53.599Z,99.90
2023-03-10T22:12:24.339Z,1.00
2023-03-10T22:14:56.744Z,99.90
2023-03-10T22:17:26.380Z,99.90
2023-03-10T22:19:56.427Z,99.90
2023-03-10T22:22:26.232Z,99.90
2023-03-10T22:24:55.534Z,1.00
2023-03-10T22:27:26.210Z,99.90
2023-03-10T22:29:55.966Z,99.90
2023-03-10T22:32:25.321Z,99.90
2023-03-10T22:34:54.606Z,99.90
2023-03-10T22:37:23.872Z,99.90
2023-03-10T22:39:53.211Z,1.00
2023-03-10T22:42:22.503Z,1.00
2023-03-10T22:44:53.182Z,1.00
2023-03-10T22:47:22.493Z,1.00
2023-03-10T22:49:51.820Z,1.00
2023-03-10T22:52:21.169Z,1.00
2023-03-10T22:54:50.611Z,1.00
2023-03-10T22:57:19.880Z,1.00
2023-03-10T22:59:49.081Z,1.00
2023-03-10T23:02:19.900Z,1.00
2023-03-10T23:04:49.112Z,1.00
2023-03-10T23:07:18.416Z,1.00
2023-03-10T23:09:47.829Z,1.00
2023-03-10T23:12:17.160Z,1.00
2023-03-10T23:14:46.505Z,1.00
2023-03-10T23:17:16.103Z,1.00
2023-03-10T23:19:51.517Z,1.00
2023-03-10T23:22:20.779Z,1.00
2023-03-10T23:24:50.707Z,1.00
2023-03-10T23:27:20.486Z,1.00
2023-03-10T23:29:49.826Z,1.00
2023-03-10T23:32:19.170Z,1.00
2023-03-10T23:34:49.905Z,1.00
2023-03-10T23:37:19.717Z,1.00
2023-03-10T23:39:49.366Z,1.00
2023-03-10T23:42:18.724Z,1.00
2023-03-10T23:44:50.143Z,1.00
2023-03-10T23:47:19.555Z,99.90
2023-03-10T23:49:50.347Z,99.90
2023-03-10T23:52:19.579Z,99.90
2023-03-10T23:54:48.838Z,99.90
2023-03-10T23:57:18.064Z,99.90
2023-03-10T23:59:47.579Z,99.90
